Latest Weather Observations for Melbourne Airport

IDV60801

Issued at 12:12 pm EST Saturday 2 July 2022 (issued every 10 minutes, with the page automatically refreshed every 10 minutes)

About weather observations | Map of weather stations | Latest weather observations for VIC | Other Formats
Station Details ID: 086282 Name: MELBOURNE AIRPORT Lat: -37.67 Lon: 144.83 Height: 113.4 m
Data from the previous 72 hours. | See also: Recent months at Melbourne Airport
Date/Time
EST
Temp
°C
App
Temp
°C
Dew
Point
°C
Rel
Hum
%
Delta-T
°C
Wind Press
QNH
hPa
Press
MSL
hPa
Rain since
9am
mm
Dir  Spd
km/h
Gust
km/h
Spd
kts
Gust
kts
02/12:00pm 9.4 5.3 7.7 89 0.8 S 19 26 10 14 1030.5 1030.7 0.0
02/11:53am 9.7 6.2 7.1 84 1.2 SSW 15 24 8 13 1030.5 1030.7 0.0
02/11:46am 9.8 6.3 7.2 84 1.2 SSW 15 19 8 10 1030.6 1030.8 0.0
02/11:30am 9.3 6.3 7.6 89 0.8 SSW 13 17 7 9 1030.7 1030.9 0.0
02/11:09am 8.9 5.8 7.4 90 0.7 SW 13 17 7 9 1031.0 1031.3 0.0
02/11:00am 9.1 6.2 8.0 93 0.5 SW 13 17 7 9 1031.0 1031.3 0.0
02/10:54am 8.7 5.7 7.5 92 0.6 SW 13 15 7 8 1031.0 1031.3 0.0
02/10:30am 8.3 5.2 7.2 93 0.5 SSW 13 15 7 8 1031.2 1031.5 0.0
02/10:00am 8.2 5.1 7.4 95 0.4 SW 13 17 7 9 1031.0 1031.3 0.0
02/09:30am 7.9 5.2 7.3 96 0.3 SW 11 13 6 7 1030.7 1030.9 0.0
02/09:00am 7.7 4.6 7.1 96 0.3 SSW 13 17 7 9 1030.5 1030.7 0.0
02/08:50am 7.8 4.7 7.2 96 0.3 SW 13 17 7 9 1030.5 1030.7 0.0
02/08:30am 7.7 5.4 7.3 97 0.2 SSW 9 13 5 7 1030.6 1030.8 0.0
02/08:19am 7.6 4.9 7.2 97 0.2 SW 11 13 6 7 1030.5 1030.7 0.0
02/08:00am 7.5 4.7 7.1 97 0.2 SSW 11 13 6 7 1030.5 1030.7 0.0
02/07:53am 7.4 4.6 7.1 98 0.1 SSW 11 13 6 7 1030.5 1030.7 0.0
02/07:30am 7.3 4.5 7.0 98 0.1 SW 11 13 6 7 1030.4 1030.6 0.0
02/07:25am 7.3 4.5 7.0 98 0.1 SW 11 15 6 8 1030.4 1030.6 0.0
02/07:04am 7.3 4.5 7.0 98 0.1 SSW 11 13 6 7 1030.3 1030.5 0.0
02/07:00am 7.3 4.5 7.0 98 0.1 SSW 11 15 6 8 1030.2 1030.4 0.0
02/06:30am 7.1 4.3 6.8 98 0.1 SSW 11 13 6 7 1030.0 1030.2 0.0
02/06:00am 6.6 4.0 6.2 97 0.2 SW 9 13 5 7 1029.9 1030.1 0.0
02/05:30am 5.9 3.2 5.5 97 0.2 WSW 9 11 5 6 1029.9 1030.1 0.0
02/05:00am 5.2 1.9 4.6 96 0.3 W 11 13 6 7 1030.0 1030.2 0.0
02/04:30am 5.8 2.2 5.1 95 0.3 W 13 15 7 8 1030.0 1030.2 0.0
02/04:00am 6.0 2.9 5.4 96 0.3 WSW 11 13 6 7 1030.1 1030.3 0.0
02/03:30am 6.0 3.2 5.3 95 0.3 WSW 9 11 5 6 1030.2 1030.4 0.0
02/03:00am 5.9 2.7 5.0 94 0.4 WSW 11 13 6 7 1030.3 1030.5 0.0
02/02:30am 6.8 4.1 5.4 91 0.6 WSW 9 11 5 6 1030.5 1030.7 0.0
02/02:00am 7.3 4.3 5.9 91 0.6 WSW 11 13 6 7 1030.5 1030.7 0.0
02/01:30am 7.5 4.9 6.1 91 0.6 WSW 9 9 5 5 1030.5 1030.7 0.0
02/01:00am 7.7 5.5 6.3 91 0.6 W 7 9 4 5 1030.6 1030.8 0.0
02/12:30am 7.8 5.3 6.6 92 0.6 W 9 11 5 6 1030.8 1031.0 0.0
02/12:00am 7.7 5.6 6.8 94 0.4 W 7 9 4 5 1030.9 1031.2 0.0
 
Date/Time
EST
Temp
°C
App
Temp
°C
Dew
Point
°C
Rel
Hum
%
Delta-T
°C
Wind Press
QNH
hPa
Press
MSL
hPa
Rain since
9am
mm
Dir  Spd
km/h
Gust
km/h
Spd
kts
Gust
kts
01/11:30pm 6.8 4.5 5.7 93 0.5 SW 7 7 4 4 1030.9 1031.2 0.0
01/11:00pm 7.7 5.5 6.3 91 0.6 SSW 7 7 4 4 1030.9 1031.2 0.0
01/10:30pm 8.1 6.0 6.6 90 0.7 SSW 7 9 4 5 1030.9 1031.2 0.0
01/10:00pm 8.1 6.0 6.7 91 0.6 SW 7 7 4 4 1031.0 1031.3 0.0
01/09:30pm 8.4 7.7 7.0 91 0.7 CALM 0 0 0 0 1031.1 1031.4 0.0
01/09:00pm 8.1 6.2 6.6 90 0.7 S 6 7 3 4 1031.1 1031.4 0.0
01/08:30pm 8.0 5.5 6.5 90 0.7 S 9 9 5 5 1031.0 1031.3 0.0
01/08:00pm 8.0 5.4 6.3 89 0.8 S 9 13 5 7 1031.1 1031.4 0.0
01/07:30pm 8.3 6.3 6.3 87 0.9 S 6 7 3 4 1030.8 1031.0 0.0
01/07:00pm 8.6 5.7 6.4 86 1.0 S 11 13 6 7 1030.6 1030.8 0.0
01/06:30pm 9.6 6.4 7.0 84 1.2 S 13 17 7 9 1030.5 1030.7 0.0
01/06:00pm 9.9 6.8 7.2 83 1.3 S 13 17 7 9 1030.3 1030.5 0.0
01/05:30pm 9.9 6.4 7.2 83 1.3 S 15 19 8 10 1029.9 1030.1 0.0
01/05:00pm 10.0 6.2 7.4 84 1.2 S 17 26 9 14 1029.9 1030.1 0.0
01/04:30pm 10.3 6.6 8.1 86 1.1 S 17 26 9 14 1029.7 1029.9 0.0
01/04:00pm 10.6 5.5 7.5 81 1.5 S 24 30 13 16 1029.6 1029.8 0.0
01/03:30pm 11.1 6.7 7.4 78 1.8 S 20 28 11 15 1029.5 1029.7 0.0
01/03:00pm 11.6 6.5 7.7 77 1.9 S 24 30 13 16 1029.5 1029.7 0.0
01/02:30pm 11.4 7.3 7.9 79 1.7 SSW 19 26 10 14 1029.6 1029.8 0.0
01/02:16pm 11.4 7.3 7.9 79 1.7 S 19 26 10 14 1029.5 1029.7 0.0
01/02:00pm 11.4 7.3 7.9 79 1.7 S 19 30 10 16 1029.7 1029.9 0.0
01/01:30pm 11.3 7.7 8.3 82 1.5 SSW 17 22 9 12 1030.0 1030.2 0.0
01/01:00pm 10.8 8.0 8.4 85 1.2 SSW 13 15 7 8 1030.1 1030.3 0.0
01/12:30pm 10.6 8.6 8.5 87 1.0 SSW 9 13 5 7 1030.3 1030.5 0.0
01/12:00pm 10.2 8.1 8.3 88 0.9 SW 9 13 5 7 1030.6 1030.8 0.0
01/11:30am 9.9 7.8 8.2 89 0.8 SSW 9 11 5 6 1030.7 1030.9 0.0
01/11:00am 9.9 7.3 7.8 87 1.0 SW 11 13 6 7 1030.9 1031.2 0.0
01/10:30am 9.9 7.8 8.2 89 0.8 S 9 11 5 6 1030.9 1031.2 0.0
01/10:20am 9.7 7.1 7.8 88 0.9 SSW 11 13 6 7 1030.9 1031.2 0.0
01/10:00am 9.7 9.2 7.8 88 0.9 CALM 0 0 0 0 1030.8 1031.0 0.0
01/09:30am 8.9 7.0 6.7 86 1.0 W 6 11 3 6 1030.6 1030.8 0.0
01/09:00am 8.0 7.2 6.3 89 0.8 CALM 0 0 0 0 1030.5 1030.7 0.0
01/08:30am 7.2 5.9 6.0 92 0.5 W 2 7 1 4 1030.3 1030.5 0.0
01/08:00am 6.7 3.6 5.7 93 0.4 W 11 13 6 7 1030.1 1030.3 0.0
01/07:30am 6.6 5.5 5.2 91 0.6 CALM 0 0 0 0 1030.0 1030.2 0.0
01/07:00am 6.6 5.1 5.2 91 0.6 W 2 7 1 4 1029.7 1029.9 0.0
01/06:30am 6.7 4.3 5.2 90 0.7 W 7 9 4 5 1029.4 1029.6 0.0
01/06:00am 6.9 4.1 5.2 89 0.7 W 9 13 5 7 1029.2 1029.4 0.0
01/05:30am 7.6 4.6 5.9 89 0.8 WSW 11 13 6 7 1029.1 1029.3 0.0
01/05:00am 7.2 6.2 5.7 90 0.7 CALM 0 0 0 0 1028.8 1029.0 0.0
01/04:30am 7.8 5.6 6.1 89 0.8 WSW 7 11 4 6 1028.7 1028.9 0.0
01/04:00am 7.8 5.3 6.4 91 0.6 W 9 11 5 6 1028.6 1028.8 0.0
01/03:30am 8.4 6.1 7.3 93 0.5 WSW 9 9 5 5 1028.6 1028.8 0.0
01/03:00am 8.4 6.1 7.5 94 0.4 W 9 11 5 6 1028.6 1028.8 0.0
01/02:30am 8.6 6.7 7.7 94 0.4 SW 7 9 4 5 1028.8 1029.0 0.0
01/02:00am 8.5 6.7 7.9 96 0.3 SSW 7 9 4 5 1028.7 1028.9 0.0
01/01:30am 8.3 6.1 7.9 97 0.2 SW 9 9 5 5 1028.5 1028.7 0.0
01/01:13am 8.1 5.8 7.5 96 0.3 SW 9 11 5 6 1028.5 1028.7 0.0
01/01:00am 7.7 5.3 7.0 95 0.3 SW 9 9 5 5 1028.5 1028.7 0.0
01/12:30am 6.9 4.2 5.7 92 0.5 W 9 11 5 6 1028.5 1028.7 0.0
01/12:11am 7.1 4.4 5.4 89 0.8 WNW 9 9 5 5 1028.5 1028.7 0.0
01/12:00am 7.0 4.3 5.5 90 0.7 WNW 9 9 5 5 1028.5 1028.7 0.0
 
Date/Time
EST
Temp
°C
App
Temp
°C
Dew
Point
°C
Rel
Hum
%
Delta-T
°C
Wind Press
QNH
hPa
Press
MSL
hPa
Rain since
9am
mm
Dir  Spd
km/h
Gust
km/h
Spd
kts
Gust
kts
30/11:30pm 5.5 1.7 4.0 90 0.6 N 13 15 7 8 1028.4 1028.6 0.0
30/11:00pm 4.9 1.7 2.8 86 0.9 N 9 13 5 7 1028.1 1028.3 0.0
30/10:30pm 5.3 2.1 3.3 87 0.8 N 9 11 5 6 1028.1 1028.3 0.0
30/10:00pm 6.1 3.5 4.1 87 0.9 N 7 9 4 5 1028.1 1028.3 0.0
30/09:30pm 5.7 1.9 3.9 88 0.8 N 13 17 7 9 1027.9 1028.1 0.0
30/09:00pm 4.8 1.6 3.1 89 0.7 N 9 11 5 6 1027.8 1028.0 0.0
30/08:30pm 5.5 2.9 3.2 85 1.0 N 6 9 3 5 1027.6 1027.8 0.0
30/08:00pm 6.6 4.1 3.9 83 1.1 N 6 7 3 4 1027.4 1027.6 0.0
30/07:30pm 6.9 4.2 3.7 80 1.4 W 7 9 4 5 1027.1 1027.3 0.0
30/07:00pm 7.6 5.1 3.6 76 1.7 S 6 7 3 4 1026.9 1027.1 0.0
30/06:30pm 7.6 5.0 3.1 73 1.9 S 6 7 3 4 1026.6 1026.8 0.0
30/06:00pm 9.0 5.9 3.4 68 2.4 SSE 9 11 5 6 1026.1 1026.2 0.0
30/05:30pm 9.1 5.6 3.3 67 2.5 SSE 11 13 6 7 1025.8 1025.9 0.0
30/05:00pm 9.3 6.5 3.3 66 2.6 SE 7 9 4 5 1025.6 1025.7 0.0
30/04:30pm 9.8 6.4 4.0 67 2.6 S 11 13 6 7 1025.3 1025.4 0.0
30/04:00pm 11.2 7.5 4.4 63 3.1 S 13 19 7 10 1024.9 1025.0 0.0
30/03:30pm 12.1 7.3 4.8 61 3.4 S 19 24 10 13 1024.8 1024.9 0.0
30/03:00pm 13.8 11.4 4.4 53 4.3 SSW 6 15 3 8 1024.6 1024.7 0.0
30/02:30pm 13.4 11.1 4.6 55 4.1 S 6 9 3 5 1024.3 1024.5 0.0
30/02:00pm 13.7 12.7 5.8 59 3.7 CALM 0 0 0 0 1024.5 1024.6 0.0
30/01:30pm 13.1 11.4 5.8 61 3.5 SW 4 11 2 6 1024.7 1024.8 0.0
30/01:00pm 12.6 10.0 6.2 65 3.0 SSE 9 15 5 8 1024.9 1025.0 0.0
30/12:30pm 12.1 9.4 5.7 65 3.0 S 9 15 5 8 1025.1 1025.2 0.0
30/12:00pm 11.7 9.5 6.2 69 2.6 SW 7 11 4 6 1025.4 1025.5 0.0
30/11:30am 10.8 7.8 6.0 72 2.2 SSW 11 15 6 8 1025.6 1025.7 0.0
30/11:00am 9.2 6.4 5.0 75 1.9 WSW 9 15 5 8 1025.5 1025.6 0.0
30/10:30am 7.9 4.6 4.8 81 1.4 NNW 11 17 6 9 1025.7 1025.8 0.0
30/10:00am 6.2 2.1 4.5 89 0.7 N 15 17 8 9 1025.6 1025.7 0.0
30/09:30am 5.3 0.3 3.5 88 0.8 N 19 20 10 11 1025.5 1025.6 0.0
30/09:00am 5.4 1.1 3.3 86 0.9 N 15 20 8 11 1025.0 1025.1 0.0
30/08:30am 4.3 0.3 2.8 90 0.6 N 13 15 7 8 1024.8 1024.9 0.0
30/08:00am 3.4 0.1 2.2 92 0.5 NW 9 13 5 7 1024.6 1024.7 0.0
30/07:30am 3.1 -0.4 1.3 88 0.7 N 9 13 5 7 1024.2 1024.4 0.0
30/07:00am 2.4 -1.1 1.2 92 0.5 N 9 11 5 6 1023.9 1024.1 0.0
30/06:30am 3.4 0.3 1.4 87 0.8 NNW 7 9 4 5 1023.6 1023.8 0.0
30/06:00am 3.1 -0.3 1.9 92 0.5 WNW 9 11 5 6 1023.0 1023.2 0.0
30/05:30am 4.3 1.1 2.8 90 0.6 NNE 9 15 5 8 1022.4 1022.6 0.0
30/05:00am 4.4 0.3 2.1 85 0.9 N 13 15 7 8 1022.1 1022.3 0.0
30/04:30am 5.5 1.3 3.7 88 0.8 N 15 19 8 10 1021.8 1022.0 0.0
30/04:00am 6.0 0.9 4.0 87 0.9 N 20 26 11 14 1021.7 1021.9 0.0
30/03:30am 5.6 1.4 3.6 87 0.8 N 15 19 8 10 1021.7 1021.9 0.0
30/03:00am 6.1 2.3 4.1 87 0.9 NNE 13 17 7 9 1021.7 1021.9 0.0
30/02:30am 6.0 2.2 3.8 86 0.9 NNE 13 15 7 8 1021.7 1021.9 0.0
30/02:00am 6.3 1.8 4.1 86 0.9 NNE 17 20 9 11 1021.8 1022.0 0.0
30/01:30am 5.8 1.6 4.0 88 0.8 NNE 15 17 8 9 1021.7 1021.9 0.0
30/01:00am 7.2 3.5 4.5 83 1.2 N 13 15 7 8 1021.8 1022.0 0.0
30/12:30am 6.2 2.8 4.0 86 0.9 N 11 20 6 11 1021.8 1022.0 0.0
30/12:00am 7.0 3.3 4.5 84 1.1 NNE 13 15 7 8 1021.7 1021.9 0.0
 
Date/Time
EST
Temp
°C
App
Temp
°C
Dew
Point
°C
Rel
Hum
%
Delta-T
°C
Wind Press
QNH
hPa
Press
MSL
hPa
Rain since
9am
mm
Dir  Spd
km/h
Gust
km/h
Spd
kts
Gust
kts
29/11:30pm 7.5 2.7 4.8 83 1.2 NNE 19 24 10 13 1021.7 1021.9 0.0
29/11:00pm 8.2 2.5 5.0 80 1.4 NNE 24 30 13 16 1021.6 1021.8 0.0
29/10:44pm 8.6 2.2 5.2 79 1.5 NNE 28 50 15 27 1021.6 1021.8 0.0
29/10:30pm 8.9 3.3 5.3 78 1.6 NNE 24 41 13 22 1021.7 1021.9 0.0
29/10:00pm 8.5 2.8 4.9 78 1.6 NNE 24 32 13 17 1021.8 1022.0 0.0
29/09:30pm 8.4 2.7 5.0 79 1.5 NNE 24 41 13 22 1021.7 1021.9 0.0
29/09:00pm 8.7 3.0 4.9 77 1.7 NNE 24 32 13 17 1021.8 1022.0 0.0
29/08:30pm 8.5 3.7 4.9 78 1.6 NNE 19 30 10 16 1022.2 1022.4 0.0
29/08:00pm 8.0 3.6 4.8 80 1.4 NNE 17 24 9 13 1022.0 1022.2 0.0
29/07:30pm 8.4 3.1 5.0 79 1.5 NNE 22 35 12 19 1021.6 1021.8 0.0
29/07:00pm 8.3 3.4 4.9 79 1.5 NNE 20 37 11 20 1021.1 1021.3 0.0
29/06:30pm 8.3 3.9 4.5 77 1.7 N 17 24 9 13 1021.2 1021.4 0.0
29/06:00pm 8.7 3.9 4.5 75 1.9 NNE 19 32 10 17 1020.9 1021.1 0.0
29/05:30pm 8.9 2.3 4.3 73 2.0 NNE 28 41 15 22 1020.5 1020.7 0.0
29/05:00pm 9.0 3.1 3.8 70 2.3 NE 24 37 13 20 1020.9 1021.1 0.0
29/04:30pm 9.3 2.7 4.1 70 2.3 NNE 28 39 15 21 1020.7 1020.9 0.0
29/04:00pm 9.5 2.9 4.1 69 2.4 NNE 28 37 15 20 1020.8 1021.0 0.0
29/03:30pm 9.9 3.2 3.9 66 2.7 NE 28 35 15 19 1021.1 1021.3 0.0
29/03:00pm 9.7 3.0 3.9 67 2.5 NNE 28 37 15 20 1021.6 1021.8 0.0
29/02:30pm 9.8 2.8 4.2 68 2.5 NNE 30 39 16 21 1021.5 1021.7 0.0
29/02:00pm 9.8 2.4 4.0 67 2.6 NNE 32 39 17 21 1021.4 1021.6 0.0
29/01:30pm 9.7 2.6 3.7 66 2.6 NNE 30 37 16 20 1021.8 1022.0 0.0
29/01:00pm 9.7 2.7 3.9 67 2.5 NNE 30 37 16 20 1022.1 1022.3 0.0
29/12:30pm 9.3 1.3 3.9 69 2.4 NNE 35 44 19 24 1022.5 1022.7 0.0

Other formats

Comma delimited format used in spreadsheet applications
http://www.bom.gov.au/fwo/IDV60801/IDV60801.94866.axf

JavaScript Object Notation format (JSON) in row-major order
http://www.bom.gov.au/fwo/IDV60801/IDV60801.94866.json

Data quality

Most of these data are generated automatically and are frequently updated. Quality checks on data are not normally performed. It is possible for incorrect values to appear. Refer to information at About Latest Weather Observations and please check the disclaimer before using these data.